sensor_id;sensor_type;location;lat;lon;timestamp;P1;durP1;ratioP1;P2;durP2;ratioP2
54923;SDS011;40825;52.270;20.984;2023-05-29T00:00:12;8.00;;;2.60;;
54923;SDS011;40825;52.270;20.984;2023-05-29T00:02:58;9.60;;;3.10;;
54923;SDS011;40825;52.270;20.984;2023-05-29T00:05:24;6.90;;;2.20;;
54923;SDS011;40825;52.270;20.984;2023-05-29T00:07:49;8.50;;;2.60;;
54923;SDS011;40825;52.270;20.984;2023-05-29T00:10:15;9.90;;;2.50;;
54923;SDS011;40825;52.270;20.984;2023-05-29T00:12:41;6.70;;;2.70;;
54923;SDS011;40825;52.270;20.984;2023-05-29T00:15:07;6.00;;;2.20;;
54923;SDS011;40825;52.270;20.984;2023-05-29T00:17:34;7.00;;;2.70;;
54923;SDS011;40825;52.270;20.984;2023-05-29T00:20:00;10.90;;;2.90;;
54923;SDS011;40825;52.270;20.984;2023-05-29T00:22:30;7.30;;;2.10;;
54923;SDS011;40825;52.270;20.984;2023-05-29T00:24:56;6.80;;;2.20;;
54923;SDS011;40825;52.270;20.984;2023-05-29T00:27:21;7.80;;;2.60;;
54923;SDS011;40825;52.270;20.984;2023-05-29T00:29:47;9.10;;;3.30;;
54923;SDS011;40825;52.270;20.984;2023-05-29T00:32:12;8.30;;;2.60;;
54923;SDS011;40825;52.270;20.984;2023-05-29T00:34:37;8.00;;;3.00;;
54923;SDS011;40825;52.270;20.984;2023-05-29T00:37:03;6.80;;;2.40;;
54923;SDS011;40825;52.270;20.984;2023-05-29T00:39:29;7.50;;;3.30;;
54923;SDS011;40825;52.270;20.984;2023-05-29T00:41:54;7.70;;;2.80;;
54923;SDS011;40825;52.270;20.984;2023-05-29T00:44:21;7.50;;;2.80;;
54923;SDS011;40825;52.270;20.984;2023-05-29T00:46:47;8.30;;;3.10;;
54923;SDS011;40825;52.270;20.984;2023-05-29T00:49:14;9.00;;;2.90;;
54923;SDS011;40825;52.270;20.984;2023-05-29T00:51:41;8.20;;;2.70;;
54923;SDS011;40825;52.270;20.984;2023-05-29T00:54:09;9.20;;;2.80;;
54923;SDS011;40825;52.270;20.984;2023-05-29T00:56:41;10.90;;;2.80;;
54923;SDS011;40825;52.270;20.984;2023-05-29T00:59:13;7.10;;;2.60;;
54923;SDS011;40825;52.270;20.984;2023-05-29T01:01:39;7.90;;;2.70;;
54923;SDS011;40825;52.270;20.984;2023-05-29T01:04:05;10.30;;;3.30;;
54923;SDS011;40825;52.270;20.984;2023-05-29T01:06:32;6.90;;;2.60;;
54923;SDS011;40825;52.270;20.984;2023-05-29T01:08:58;9.00;;;2.60;;
54923;SDS011;40825;52.270;20.984;2023-05-29T01:11:36;8.80;;;3.10;;
54923;SDS011;40825;52.270;20.984;2023-05-29T01:14:23;7.90;;;2.60;;
54923;SDS011;40825;52.270;20.984;2023-05-29T01:17:19;6.60;;;3.00;;
54923;SDS011;40825;52.270;20.984;2023-05-29T01:25:50;7.20;;;2.50;;
54923;SDS011;40825;52.270;20.984;2023-05-29T01:28:25;6.70;;;2.60;;
54923;SDS011;40825;52.270;20.984;2023-05-29T01:30:57;7.80;;;3.30;;
54923;SDS011;40825;52.270;20.984;2023-05-29T01:33:26;7.60;;;2.30;;
54923;SDS011;40825;52.270;20.984;2023-05-29T01:35:52;9.00;;;3.10;;
54923;SDS011;40825;52.270;20.984;2023-05-29T01:38:18;9.10;;;2.90;;
54923;SDS011;40825;52.270;20.984;2023-05-29T01:40:44;7.70;;;3.10;;
54923;SDS011;40825;52.270;20.984;2023-05-29T01:43:11;8.50;;;2.90;;
54923;SDS011;40825;52.270;20.984;2023-05-29T01:45:38;10.60;;;2.90;;
54923;SDS011;40825;52.270;20.984;2023-05-29T01:48:04;8.60;;;3.00;;
54923;SDS011;40825;52.270;20.984;2023-05-29T01:50:31;6.90;;;2.70;;
54923;SDS011;40825;52.270;20.984;2023-05-29T01:52:56;8.20;;;2.00;;
54923;SDS011;40825;52.270;20.984;2023-05-29T01:55:22;11.00;;;2.70;;
54923;SDS011;40825;52.270;20.984;2023-05-29T01:57:48;6.80;;;2.40;;
54923;SDS011;40825;52.270;20.984;2023-05-29T02:00:16;7.50;;;2.50;;
54923;SDS011;40825;52.270;20.984;2023-05-29T02:02:42;6.50;;;2.60;;
54923;SDS011;40825;52.270;20.984;2023-05-29T02:05:08;6.60;;;2.50;;
54923;SDS011;40825;52.270;20.984;2023-05-29T02:07:34;7.80;;;2.80;;
54923;SDS011;40825;52.270;20.984;2023-05-29T02:10:02;6.60;;;2.60;;
54923;SDS011;40825;52.270;20.984;2023-05-29T02:12:29;7.60;;;2.60;;
54923;SDS011;40825;52.270;20.984;2023-05-29T02:14:54;7.30;;;3.00;;
54923;SDS011;40825;52.270;20.984;2023-05-29T02:17:20;7.70;;;2.70;;
54923;SDS011;40825;52.270;20.984;2023-05-29T02:19:45;9.20;;;2.70;;
54923;SDS011;40825;52.270;20.984;2023-05-29T02:22:11;6.40;;;2.90;;
54923;SDS011;40825;52.270;20.984;2023-05-29T02:24:37;10.10;;;2.60;;
54923;SDS011;40825;52.270;20.984;2023-05-29T02:27:03;8.90;;;2.80;;
54923;SDS011;40825;52.270;20.984;2023-05-29T02:29:28;5.80;;;2.60;;
54923;SDS011;40825;52.270;20.984;2023-05-29T02:31:54;9.10;;;2.70;;
54923;SDS011;40825;52.270;20.984;2023-05-29T02:34:20;7.40;;;2.60;;
54923;SDS011;40825;52.270;20.984;2023-05-29T02:36:48;10.10;;;3.10;;
54923;SDS011;40825;52.270;20.984;2023-05-29T02:39:14;11.10;;;2.30;;
54923;SDS011;40825;52.270;20.984;2023-05-29T02:41:39;8.00;;;2.40;;
54923;SDS011;40825;52.270;20.984;2023-05-29T02:44:05;8.40;;;2.60;;
54923;SDS011;40825;52.270;20.984;2023-05-29T02:46:31;12.40;;;2.50;;
54923;SDS011;40825;52.270;20.984;2023-05-29T02:48:56;7.50;;;2.40;;
54923;SDS011;40825;52.270;20.984;2023-05-29T02:51:22;9.80;;;2.80;;
54923;SDS011;40825;52.270;20.984;2023-05-29T02:53:47;9.40;;;3.10;;
54923;SDS011;40825;52.270;20.984;2023-05-29T02:56:13;7.10;;;2.30;;
54923;SDS011;40825;52.270;20.984;2023-05-29T02:58:41;9.00;;;2.60;;
54923;SDS011;40825;52.270;20.984;2023-05-29T03:01:07;8.40;;;2.80;;
54923;SDS011;40825;52.270;20.984;2023-05-29T03:03:33;7.70;;;2.40;;
54923;SDS011;40825;52.270;20.984;2023-05-29T03:05:58;9.70;;;3.20;;
54923;SDS011;40825;52.270;20.984;2023-05-29T03:08:26;7.40;;;2.40;;
54923;SDS011;40825;52.270;20.984;2023-05-29T03:10:54;12.40;;;2.90;;
54923;SDS011;40825;52.270;20.984;2023-05-29T03:13:20;8.80;;;2.60;;
54923;SDS011;40825;52.270;20.984;2023-05-29T03:15:46;9.10;;;3.10;;
54923;SDS011;40825;52.270;20.984;2023-05-29T03:18:12;9.00;;;2.80;;
54923;SDS011;40825;52.270;20.984;2023-05-29T03:20:38;10.20;;;3.70;;
54923;SDS011;40825;52.270;20.984;2023-05-29T03:23:03;9.90;;;4.00;;
54923;SDS011;40825;52.270;20.984;2023-05-29T03:25:29;8.80;;;3.90;;
54923;SDS011;40825;52.270;20.984;2023-05-29T03:27:54;12.40;;;4.60;;
54923;SDS011;40825;52.270;20.984;2023-05-29T03:30:20;10.30;;;4.30;;
54923;SDS011;40825;52.270;20.984;2023-05-29T03:32:46;8.60;;;4.10;;
54923;SDS011;40825;52.270;20.984;2023-05-29T03:35:11;12.10;;;5.40;;
54923;SDS011;40825;52.270;20.984;2023-05-29T03:37:37;15.50;;;6.20;;
54923;SDS011;40825;52.270;20.984;2023-05-29T03:40:02;13.30;;;6.20;;
54923;SDS011;40825;52.270;20.984;2023-05-29T03:42:30;13.70;;;6.20;;
54923;SDS011;40825;52.270;20.984;2023-05-29T03:44:56;12.40;;;5.80;;
54923;SDS011;40825;52.270;20.984;2023-05-29T03:47:22;13.90;;;6.20;;
54923;SDS011;40825;52.270;20.984;2023-05-29T03:49:47;19.70;;;7.60;;
54923;SDS011;40825;52.270;20.984;2023-05-29T03:52:13;15.90;;;7.90;;
54923;SDS011;40825;52.270;20.984;2023-05-29T03:54:38;16.00;;;7.90;;
54923;SDS011;40825;52.270;20.984;2023-05-29T03:57:04;16.70;;;7.20;;
54923;SDS011;40825;52.270;20.984;2023-05-29T03:59:32;16.20;;;7.30;;
54923;SDS011;40825;52.270;20.984;2023-05-29T04:01:57;15.60;;;7.90;;
54923;SDS011;40825;52.270;20.984;2023-05-29T04:04:23;18.00;;;8.20;;
54923;SDS011;40825;52.270;20.984;2023-05-29T04:06:49;15.10;;;7.20;;
54923;SDS011;40825;52.270;20.984;2023-05-29T04:09:14;18.60;;;7.10;;
54923;SDS011;40825;52.270;20.984;2023-05-29T04:11:40;14.90;;;6.90;;
54923;SDS011;40825;52.270;20.984;2023-05-29T04:14:06;12.60;;;6.20;;
54923;SDS011;40825;52.270;20.984;2023-05-29T04:16:32;13.70;;;5.90;;
54923;SDS011;40825;52.270;20.984;2023-05-29T04:18:57;17.70;;;7.00;;
54923;SDS011;40825;52.270;20.984;2023-05-29T04:21:23;15.80;;;5.50;;
54923;SDS011;40825;52.270;20.984;2023-05-29T04:23:49;15.60;;;6.30;;
54923;SDS011;40825;52.270;20.984;2023-05-29T04:26:14;19.10;;;7.20;;
54923;SDS011;40825;52.270;20.984;2023-05-29T04:28:40;13.10;;;5.30;;
54923;SDS011;40825;52.270;20.984;2023-05-29T04:31:05;11.30;;;5.60;;
54923;SDS011;40825;52.270;20.984;2023-05-29T04:33:31;12.10;;;6.00;;
54923;SDS011;40825;52.270;20.984;2023-05-29T04:35:58;16.50;;;5.40;;
54923;SDS011;40825;52.270;20.984;2023-05-29T04:38:26;12.90;;;5.50;;
54923;SDS011;40825;52.270;20.984;2023-05-29T04:40:53;10.90;;;5.50;;
54923;SDS011;40825;52.270;20.984;2023-05-29T04:43:22;15.60;;;5.20;;
54923;SDS011;40825;52.270;20.984;2023-05-29T04:45:51;12.60;;;5.60;;
54923;SDS011;40825;52.270;20.984;2023-05-29T04:48:18;15.30;;;5.70;;
54923;SDS011;40825;52.270;20.984;2023-05-29T04:50:43;11.50;;;5.50;;
54923;SDS011;40825;52.270;20.984;2023-05-29T04:53:09;14.10;;;5.40;;
54923;SDS011;40825;52.270;20.984;2023-05-29T04:55:35;8.90;;;4.70;;
54923;SDS011;40825;52.270;20.984;2023-05-29T04:58:01;11.20;;;5.60;;
54923;SDS011;40825;52.270;20.984;2023-05-29T05:00:27;11.80;;;4.60;;
54923;SDS011;40825;52.270;20.984;2023-05-29T05:02:52;11.90;;;4.60;;
54923;SDS011;40825;52.270;20.984;2023-05-29T05:05:18;10.80;;;4.90;;
54923;SDS011;40825;52.270;20.984;2023-05-29T05:07:43;10.60;;;4.70;;
54923;SDS011;40825;52.270;20.984;2023-05-29T05:10:09;11.10;;;5.10;;
54923;SDS011;40825;52.270;20.984;2023-05-29T05:12:35;12.00;;;4.90;;
54923;SDS011;40825;52.270;20.984;2023-05-29T05:15:00;11.50;;;5.30;;
54923;SDS011;40825;52.270;20.984;2023-05-29T05:17:26;11.30;;;4.30;;
54923;SDS011;40825;52.270;20.984;2023-05-29T05:19:52;10.20;;;4.10;;
54923;SDS011;40825;52.270;20.984;2023-05-29T05:22:18;10.30;;;4.90;;
54923;SDS011;40825;52.270;20.984;2023-05-29T05:24:44;11.60;;;4.60;;
54923;SDS011;40825;52.270;20.984;2023-05-29T05:27:10;13.00;;;4.80;;
54923;SDS011;40825;52.270;20.984;2023-05-29T05:29:35;10.90;;;4.70;;
54923;SDS011;40825;52.270;20.984;2023-05-29T05:32:01;9.60;;;4.20;;
54923;SDS011;40825;52.270;20.984;2023-05-29T05:34:26;10.40;;;4.30;;
54923;SDS011;40825;52.270;20.984;2023-05-29T05:36:52;10.80;;;4.50;;
54923;SDS011;40825;52.270;20.984;2023-05-29T05:39:17;15.10;;;4.70;;
54923;SDS011;40825;52.270;20.984;2023-05-29T05:41:43;13.80;;;4.90;;
54923;SDS011;40825;52.270;20.984;2023-05-29T05:44:08;11.20;;;4.20;;
54923;SDS011;40825;52.270;20.984;2023-05-29T05:46:34;11.90;;;4.00;;
54923;SDS011;40825;52.270;20.984;2023-05-29T05:48:59;9.00;;;3.70;;
54923;SDS011;40825;52.270;20.984;2023-05-29T05:51:26;8.90;;;4.10;;
54923;SDS011;40825;52.270;20.984;2023-05-29T05:53:52;10.90;;;4.10;;
54923;SDS011;40825;52.270;20.984;2023-05-29T05:56:18;9.60;;;3.60;;
54923;SDS011;40825;52.270;20.984;2023-05-29T05:58:44;9.30;;;4.00;;
54923;SDS011;40825;52.270;20.984;2023-05-29T06:01:10;10.10;;;3.20;;
54923;SDS011;40825;52.270;20.984;2023-05-29T06:03:35;10.80;;;3.50;;
54923;SDS011;40825;52.270;20.984;2023-05-29T06:06:02;9.30;;;3.60;;
54923;SDS011;40825;52.270;20.984;2023-05-29T06:08:28;11.20;;;4.20;;
54923;SDS011;40825;52.270;20.984;2023-05-29T06:10:55;9.10;;;3.60;;
54923;SDS011;40825;52.270;20.984;2023-05-29T06:13:20;10.10;;;3.20;;
54923;SDS011;40825;52.270;20.984;2023-05-29T06:15:46;9.60;;;3.40;;
54923;SDS011;40825;52.270;20.984;2023-05-29T06:18:11;11.10;;;4.30;;
54923;SDS011;40825;52.270;20.984;2023-05-29T06:20:37;9.60;;;3.80;;
54923;SDS011;40825;52.270;20.984;2023-05-29T06:23:02;7.50;;;3.00;;
54923;SDS011;40825;52.270;20.984;2023-05-29T06:25:28;11.30;;;3.90;;
54923;SDS011;40825;52.270;20.984;2023-05-29T06:28:01;9.30;;;3.80;;
54923;SDS011;40825;52.270;20.984;2023-05-29T06:30:27;8.70;;;3.30;;
54923;SDS011;40825;52.270;20.984;2023-05-29T06:32:53;9.80;;;2.90;;
54923;SDS011;40825;52.270;20.984;2023-05-29T06:35:19;8.60;;;2.70;;
54923;SDS011;40825;52.270;20.984;2023-05-29T06:37:45;9.00;;;2.70;;
54923;SDS011;40825;52.270;20.984;2023-05-29T06:40:12;8.10;;;2.50;;
54923;SDS011;40825;52.270;20.984;2023-05-29T06:42:38;8.60;;;2.90;;
54923;SDS011;40825;52.270;20.984;2023-05-29T06:45:03;10.40;;;2.80;;
54923;SDS011;40825;52.270;20.984;2023-05-29T06:47:29;8.40;;;2.80;;
54923;SDS011;40825;52.270;20.984;2023-05-29T06:49:55;8.10;;;2.80;;
54923;SDS011;40825;52.270;20.984;2023-05-29T06:52:20;7.40;;;2.60;;
54923;SDS011;40825;52.270;20.984;2023-05-29T06:54:46;8.20;;;3.40;;
54923;SDS011;40825;52.270;20.984;2023-05-29T06:57:11;8.30;;;2.40;;
54923;SDS011;40825;52.270;20.984;2023-05-29T06:59:37;9.30;;;2.40;;
54923;SDS011;40825;52.270;20.984;2023-05-29T07:02:03;7.30;;;2.00;;
54923;SDS011;40825;52.270;20.984;2023-05-29T07:04:29;6.20;;;2.30;;
54923;SDS011;40825;52.270;20.984;2023-05-29T07:06:54;9.00;;;2.60;;
54923;SDS011;40825;52.270;20.984;2023-05-29T07:09:20;12.00;;;2.30;;
54923;SDS011;40825;52.270;20.984;2023-05-29T07:11:46;6.40;;;2.80;;
54923;SDS011;40825;52.270;20.984;2023-05-29T07:14:11;7.40;;;1.80;;
54923;SDS011;40825;52.270;20.984;2023-05-29T07:16:37;4.40;;;2.20;;
54923;SDS011;40825;52.270;20.984;2023-05-29T07:19:03;6.00;;;1.40;;
54923;SDS011;40825;52.270;20.984;2023-05-29T07:21:28;5.60;;;2.20;;
54923;SDS011;40825;52.270;20.984;2023-05-29T07:23:54;6.30;;;2.40;;
54923;SDS011;40825;52.270;20.984;2023-05-29T07:26:19;5.60;;;1.90;;
54923;SDS011;40825;52.270;20.984;2023-05-29T07:28:46;5.00;;;1.70;;
54923;SDS011;40825;52.270;20.984;2023-05-29T07:31:12;3.80;;;1.20;;
54923;SDS011;40825;52.270;20.984;2023-05-29T07:33:39;4.00;;;1.50;;
54923;SDS011;40825;52.270;20.984;2023-05-29T07:36:06;4.30;;;2.00;;
54923;SDS011;40825;52.270;20.984;2023-05-29T07:38:32;4.80;;;1.00;;
54923;SDS011;40825;52.270;20.984;2023-05-29T07:40:58;6.00;;;1.30;;
54923;SDS011;40825;52.270;20.984;2023-05-29T07:43:24;4.70;;;1.10;;
54923;SDS011;40825;52.270;20.984;2023-05-29T07:45:49;4.60;;;0.90;;
54923;SDS011;40825;52.270;20.984;2023-05-29T07:48:14;2.80;;;0.80;;
54923;SDS011;40825;52.270;20.984;2023-05-29T07:50:40;6.10;;;1.50;;
54923;SDS011;40825;52.270;20.984;2023-05-29T07:53:06;3.40;;;1.20;;
54923;SDS011;40825;52.270;20.984;2023-05-29T07:55:32;4.20;;;0.90;;
54923;SDS011;40825;52.270;20.984;2023-05-29T07:57:59;5.10;;;1.20;;
54923;SDS011;40825;52.270;20.984;2023-05-29T08:00:24;5.00;;;1.20;;
54923;SDS011;40825;52.270;20.984;2023-05-29T08:02:51;5.10;;;1.10;;
54923;SDS011;40825;52.270;20.984;2023-05-29T08:05:17;7.20;;;1.50;;
54923;SDS011;40825;52.270;20.984;2023-05-29T08:07:43;8.50;;;1.80;;
54923;SDS011;40825;52.270;20.984;2023-05-29T08:10:09;5.40;;;1.20;;
54923;SDS011;40825;52.270;20.984;2023-05-29T08:12:34;7.20;;;1.50;;
54923;SDS011;40825;52.270;20.984;2023-05-29T08:15:01;7.20;;;1.10;;
54923;SDS011;40825;52.270;20.984;2023-05-29T08:17:27;5.50;;;1.40;;
54923;SDS011;40825;52.270;20.984;2023-05-29T08:19:53;6.80;;;1.60;;
54923;SDS011;40825;52.270;20.984;2023-05-29T08:22:18;5.80;;;1.40;;
54923;SDS011;40825;52.270;20.984;2023-05-29T08:24:44;8.90;;;1.40;;
54923;SDS011;40825;52.270;20.984;2023-05-29T08:27:09;11.00;;;7.10;;
54923;SDS011;40825;52.270;20.984;2023-05-29T08:29:35;4.10;;;1.40;;
54923;SDS011;40825;52.270;20.984;2023-05-29T08:32:02;5.80;;;1.10;;
54923;SDS011;40825;52.270;20.984;2023-05-29T08:34:27;6.70;;;1.30;;
54923;SDS011;40825;52.270;20.984;2023-05-29T08:36:53;5.10;;;1.50;;
54923;SDS011;40825;52.270;20.984;2023-05-29T08:39:20;8.30;;;2.20;;
54923;SDS011;40825;52.270;20.984;2023-05-29T08:44:32;7.20;;;2.10;;
54923;SDS011;40825;52.270;20.984;2023-05-29T08:47:00;4.70;;;1.50;;
54923;SDS011;40825;52.270;20.984;2023-05-29T08:49:40;5.40;;;1.50;;
54923;SDS011;40825;52.270;20.984;2023-05-29T08:52:11;4.40;;;1.20;;
54923;SDS011;40825;52.270;20.984;2023-05-29T08:54:40;5.30;;;1.50;;
54923;SDS011;40825;52.270;20.984;2023-05-29T08:57:06;6.30;;;1.70;;
54923;SDS011;40825;52.270;20.984;2023-05-29T08:59:32;5.10;;;1.50;;
54923;SDS011;40825;52.270;20.984;2023-05-29T09:01:58;3.80;;;1.00;;
54923;SDS011;40825;52.270;20.984;2023-05-29T09:04:23;4.90;;;1.40;;
54923;SDS011;40825;52.270;20.984;2023-05-29T09:06:49;3.10;;;1.00;;
54923;SDS011;40825;52.270;20.984;2023-05-29T09:09:18;3.70;;;1.20;;
54923;SDS011;40825;52.270;20.984;2023-05-29T09:11:44;5.40;;;1.00;;
54923;SDS011;40825;52.270;20.984;2023-05-29T09:17:01;5.00;;;1.40;;
54923;SDS011;40825;52.270;20.984;2023-05-29T09:19:29;6.80;;;1.80;;
54923;SDS011;40825;52.270;20.984;2023-05-29T09:22:02;3.70;;;1.00;;
54923;SDS011;40825;52.270;20.984;2023-05-29T09:24:28;5.50;;;1.50;;
54923;SDS011;40825;52.270;20.984;2023-05-29T09:26:53;6.50;;;1.20;;
54923;SDS011;40825;52.270;20.984;2023-05-29T09:29:20;4.30;;;1.70;;
54923;SDS011;40825;52.270;20.984;2023-05-29T09:31:46;5.10;;;1.30;;
54923;SDS011;40825;52.270;20.984;2023-05-29T09:34:12;5.30;;;1.50;;
54923;SDS011;40825;52.270;20.984;2023-05-29T09:36:38;4.50;;;1.00;;
54923;SDS011;40825;52.270;20.984;2023-05-29T09:39:03;6.60;;;1.30;;
54923;SDS011;40825;52.270;20.984;2023-05-29T09:41:29;6.90;;;1.70;;
54923;SDS011;40825;52.270;20.984;2023-05-29T09:43:56;6.30;;;1.60;;
54923;SDS011;40825;52.270;20.984;2023-05-29T09:46:25;7.70;;;1.60;;
54923;SDS011;40825;52.270;20.984;2023-05-29T09:48:51;5.60;;;1.20;;
54923;SDS011;40825;52.270;20.984;2023-05-29T09:51:23;6.90;;;1.40;;
54923;SDS011;40825;52.270;20.984;2023-05-29T09:53:49;3.50;;;0.90;;
54923;SDS011;40825;52.270;20.984;2023-05-29T09:56:18;4.40;;;1.30;;
54923;SDS011;40825;52.270;20.984;2023-05-29T09:58:49;6.70;;;1.60;;
54923;SDS011;40825;52.270;20.984;2023-05-29T10:01:16;4.60;;;1.50;;
54923;SDS011;40825;52.270;20.984;2023-05-29T10:03:43;4.80;;;2.20;;
54923;SDS011;40825;52.270;20.984;2023-05-29T10:06:10;5.80;;;1.80;;
54923;SDS011;40825;52.270;20.984;2023-05-29T10:08:40;6.40;;;1.90;;
54923;SDS011;40825;52.270;20.984;2023-05-29T10:11:19;4.20;;;1.30;;
54923;SDS011;40825;52.270;20.984;2023-05-29T10:13:51;8.40;;;1.80;;
54923;SDS011;40825;52.270;20.984;2023-05-29T10:16:21;5.20;;;1.50;;
54923;SDS011;40825;52.270;20.984;2023-05-29T10:18:55;4.40;;;1.50;;
54923;SDS011;40825;52.270;20.984;2023-05-29T10:21:23;5.50;;;1.70;;
54923;SDS011;40825;52.270;20.984;2023-05-29T10:23:51;5.90;;;1.90;;
54923;SDS011;40825;52.270;20.984;2023-05-29T10:26:26;5.70;;;1.10;;
54923;SDS011;40825;52.270;20.984;2023-05-29T10:28:56;7.80;;;1.80;;
54923;SDS011;40825;52.270;20.984;2023-05-29T10:31:46;5.70;;;1.30;;
54923;SDS011;40825;52.270;20.984;2023-05-29T10:37:02;6.40;;;1.40;;
54923;SDS011;40825;52.270;20.984;2023-05-29T10:39:34;6.30;;;1.50;;
54923;SDS011;40825;52.270;20.984;2023-05-29T10:41:59;5.30;;;1.60;;
54923;SDS011;40825;52.270;20.984;2023-05-29T10:47:01;5.00;;;1.30;;
54923;SDS011;40825;52.270;20.984;2023-05-29T10:49:30;6.00;;;1.50;;
54923;SDS011;40825;52.270;20.984;2023-05-29T10:51:57;9.90;;;1.90;;
54923;SDS011;40825;52.270;20.984;2023-05-29T10:54:25;5.00;;;1.70;;
54923;SDS011;40825;52.270;20.984;2023-05-29T10:56:52;5.70;;;1.30;;
54923;SDS011;40825;52.270;20.984;2023-05-29T10:59:21;4.10;;;1.40;;
54923;SDS011;40825;52.270;20.984;2023-05-29T11:01:51;7.20;;;1.80;;
54923;SDS011;40825;52.270;20.984;2023-05-29T11:06:47;8.50;;;1.70;;
54923;SDS011;40825;52.270;20.984;2023-05-29T11:12:11;6.10;;;1.60;;
54923;SDS011;40825;52.270;20.984;2023-05-29T11:15:05;7.10;;;1.20;;
54923;SDS011;40825;52.270;20.984;2023-05-29T11:17:32;4.90;;;1.50;;
54923;SDS011;40825;52.270;20.984;2023-05-29T11:20:01;5.20;;;1.50;;
54923;SDS011;40825;52.270;20.984;2023-05-29T11:23:14;6.10;;;1.80;;
54923;SDS011;40825;52.270;20.984;2023-05-29T11:25:28;8.50;;;2.10;;
54923;SDS011;40825;52.270;20.984;2023-05-29T11:27:54;6.10;;;2.10;;
54923;SDS011;40825;52.270;20.984;2023-05-29T11:30:20;5.00;;;1.80;;
54923;SDS011;40825;52.270;20.984;2023-05-29T11:32:46;7.00;;;1.60;;
54923;SDS011;40825;52.270;20.984;2023-05-29T11:35:13;6.50;;;1.40;;
54923;SDS011;40825;52.270;20.984;2023-05-29T11:37:40;3.60;;;1.40;;
54923;SDS011;40825;52.270;20.984;2023-05-29T11:40:11;9.20;;;2.10;;
54923;SDS011;40825;52.270;20.984;2023-05-29T11:42:41;5.60;;;1.70;;
54923;SDS011;40825;52.270;20.984;2023-05-29T11:45:14;6.90;;;1.60;;
54923;SDS011;40825;52.270;20.984;2023-05-29T11:50:30;7.50;;;2.10;;
54923;SDS011;40825;52.270;20.984;2023-05-29T11:52:57;8.90;;;3.10;;
54923;SDS011;40825;52.270;20.984;2023-05-29T11:55:24;6.40;;;1.70;;
54923;SDS011;40825;52.270;20.984;2023-05-29T11:57:52;6.10;;;2.20;;
54923;SDS011;40825;52.270;20.984;2023-05-29T12:00:25;6.80;;;3.30;;
54923;SDS011;40825;52.270;20.984;2023-05-29T12:02:57;3.90;;;1.70;;
54923;SDS011;40825;52.270;20.984;2023-05-29T12:05:23;5.40;;;1.40;;
54923;SDS011;40825;52.270;20.984;2023-05-29T12:07:52;5.10;;;1.30;;
54923;SDS011;40825;52.270;20.984;2023-05-29T12:10:21;5.60;;;1.40;;
54923;SDS011;40825;52.270;20.984;2023-05-29T12:12:50;6.20;;;2.20;;
54923;SDS011;40825;52.270;20.984;2023-05-29T12:15:17;5.70;;;1.90;;
54923;SDS011;40825;52.270;20.984;2023-05-29T12:17:44;6.90;;;1.40;;
54923;SDS011;40825;52.270;20.984;2023-05-29T12:20:11;6.20;;;1.30;;
54923;SDS011;40825;52.270;20.984;2023-05-29T12:22:39;6.70;;;1.40;;
54923;SDS011;40825;52.270;20.984;2023-05-29T12:27:33;4.40;;;1.30;;
54923;SDS011;40825;52.270;20.984;2023-05-29T12:30:02;6.50;;;1.40;;
54923;SDS011;40825;52.270;20.984;2023-05-29T12:32:40;6.50;;;1.60;;
54923;SDS011;40825;52.270;20.984;2023-05-29T12:35:11;6.80;;;1.90;;
54923;SDS011;40825;52.270;20.984;2023-05-29T12:37:48;4.60;;;1.50;;
54923;SDS011;40825;52.270;20.984;2023-05-29T12:40:15;3.80;;;1.10;;
54923;SDS011;40825;52.270;20.984;2023-05-29T12:42:42;4.70;;;1.50;;
54923;SDS011;40825;52.270;20.984;2023-05-29T12:45:08;4.20;;;1.30;;
54923;SDS011;40825;52.270;20.984;2023-05-29T12:47:35;7.50;;;1.10;;
54923;SDS011;40825;52.270;20.984;2023-05-29T12:50:20;6.30;;;1.40;;
54923;SDS011;40825;52.270;20.984;2023-05-29T12:53:00;5.30;;;1.30;;
54923;SDS011;40825;52.270;20.984;2023-05-29T12:55:28;4.40;;;1.10;;
54923;SDS011;40825;52.270;20.984;2023-05-29T12:57:55;6.20;;;1.20;;
54923;SDS011;40825;52.270;20.984;2023-05-29T13:00:22;4.60;;;1.10;;
54923;SDS011;40825;52.270;20.984;2023-05-29T13:02:48;4.70;;;1.20;;
54923;SDS011;40825;52.270;20.984;2023-05-29T13:05:14;8.00;;;2.00;;
54923;SDS011;40825;52.270;20.984;2023-05-29T13:07:41;3.40;;;1.00;;
54923;SDS011;40825;52.270;20.984;2023-05-29T13:10:08;5.30;;;1.40;;
54923;SDS011;40825;52.270;20.984;2023-05-29T13:12:35;3.90;;;1.40;;
54923;SDS011;40825;52.270;20.984;2023-05-29T13:15:00;5.00;;;1.00;;
54923;SDS011;40825;52.270;20.984;2023-05-29T13:17:26;5.40;;;1.20;;
54923;SDS011;40825;52.270;20.984;2023-05-29T13:19:52;4.70;;;1.20;;
54923;SDS011;40825;52.270;20.984;2023-05-29T13:22:17;6.20;;;1.50;;
54923;SDS011;40825;52.270;20.984;2023-05-29T13:24:43;5.60;;;1.30;;
54923;SDS011;40825;52.270;20.984;2023-05-29T13:27:08;3.70;;;1.20;;
54923;SDS011;40825;52.270;20.984;2023-05-29T13:29:34;4.40;;;1.20;;
54923;SDS011;40825;52.270;20.984;2023-05-29T13:32:00;5.60;;;1.50;;
54923;SDS011;40825;52.270;20.984;2023-05-29T13:34:25;4.20;;;1.30;;
54923;SDS011;40825;52.270;20.984;2023-05-29T13:36:54;5.50;;;1.20;;
54923;SDS011;40825;52.270;20.984;2023-05-29T13:39:20;9.00;;;4.80;;
54923;SDS011;40825;52.270;20.984;2023-05-29T13:41:46;6.20;;;1.60;;
54923;SDS011;40825;52.270;20.984;2023-05-29T13:44:12;4.40;;;1.30;;
54923;SDS011;40825;52.270;20.984;2023-05-29T13:46:38;6.90;;;1.70;;
54923;SDS011;40825;52.270;20.984;2023-05-29T13:49:03;4.00;;;1.30;;
54923;SDS011;40825;52.270;20.984;2023-05-29T13:51:29;4.70;;;1.40;;
54923;SDS011;40825;52.270;20.984;2023-05-29T13:53:54;5.10;;;1.70;;
54923;SDS011;40825;52.270;20.984;2023-05-29T13:56:19;5.40;;;1.50;;
54923;SDS011;40825;52.270;20.984;2023-05-29T13:58:45;4.70;;;1.70;;
54923;SDS011;40825;52.270;20.984;2023-05-29T14:01:11;3.30;;;1.30;;
54923;SDS011;40825;52.270;20.984;2023-05-29T14:03:36;4.50;;;1.50;;
54923;SDS011;40825;52.270;20.984;2023-05-29T14:06:01;4.80;;;1.40;;
54923;SDS011;40825;52.270;20.984;2023-05-29T14:08:30;2.60;;;1.00;;
54923;SDS011;40825;52.270;20.984;2023-05-29T14:10:55;5.10;;;1.40;;
54923;SDS011;40825;52.270;20.984;2023-05-29T14:13:21;5.60;;;1.50;;
54923;SDS011;40825;52.270;20.984;2023-05-29T14:15:46;5.20;;;1.50;;
54923;SDS011;40825;52.270;20.984;2023-05-29T14:18:14;3.40;;;1.00;;
54923;SDS011;40825;52.270;20.984;2023-05-29T14:20:39;4.30;;;1.40;;
54923;SDS011;40825;52.270;20.984;2023-05-29T14:23:05;3.90;;;1.00;;
54923;SDS011;40825;52.270;20.984;2023-05-29T14:25:30;4.90;;;1.30;;
54923;SDS011;40825;52.270;20.984;2023-05-29T14:27:56;3.90;;;1.10;;
54923;SDS011;40825;52.270;20.984;2023-05-29T14:30:21;6.70;;;1.30;;
54923;SDS011;40825;52.270;20.984;2023-05-29T14:32:47;4.40;;;1.30;;
54923;SDS011;40825;52.270;20.984;2023-05-29T14:35:13;2.80;;;1.20;;
54923;SDS011;40825;52.270;20.984;2023-05-29T14:37:38;3.80;;;1.40;;
54923;SDS011;40825;52.270;20.984;2023-05-29T14:40:04;4.30;;;0.80;;
54923;SDS011;40825;52.270;20.984;2023-05-29T14:42:30;4.90;;;1.30;;
54923;SDS011;40825;52.270;20.984;2023-05-29T14:44:58;3.00;;;1.20;;
54923;SDS011;40825;52.270;20.984;2023-05-29T14:47:23;4.60;;;1.10;;
54923;SDS011;40825;52.270;20.984;2023-05-29T14:49:49;5.80;;;1.30;;
54923;SDS011;40825;52.270;20.984;2023-05-29T14:52:14;4.60;;;1.20;;
54923;SDS011;40825;52.270;20.984;2023-05-29T14:54:40;5.20;;;1.20;;
54923;SDS011;40825;52.270;20.984;2023-05-29T14:57:05;4.30;;;1.30;;